sensor_id;sensor_type;location;lat;lon;timestamp;P1;durP1;ratioP1;P2;durP2;ratioP2
56307;SDS011;42217;50.422;7.210;2023-11-21T00:00:19;4.10;;;1.60;;
56307;SDS011;42217;50.422;7.210;2023-11-21T00:02:45;6.23;;;3.97;;
56307;SDS011;42217;50.422;7.210;2023-11-21T00:05:12;5.03;;;1.80;;
56307;SDS011;42217;50.422;7.210;2023-11-21T00:07:41;1.13;;;1.03;;
56307;SDS011;42217;50.422;7.210;2023-11-21T00:10:08;0.90;;;0.90;;
56307;SDS011;42217;50.422;7.210;2023-11-21T00:12:35;0.80;;;0.80;;
56307;SDS011;42217;50.422;7.210;2023-11-21T00:15:01;9.27;;;1.20;;
56307;SDS011;42217;50.422;7.210;2023-11-21T00:17:27;5.17;;;1.80;;
56307;SDS011;42217;50.422;7.210;2023-11-21T00:19:53;1.13;;;1.10;;
56307;SDS011;42217;50.422;7.210;2023-11-21T00:22:19;1.20;;;1.00;;
56307;SDS011;42217;50.422;7.210;2023-11-21T00:24:45;2.03;;;1.20;;
56307;SDS011;42217;50.422;7.210;2023-11-21T00:27:11;4.37;;;1.90;;
56307;SDS011;42217;50.422;7.210;2023-11-21T00:29:37;5.27;;;3.07;;
56307;SDS011;42217;50.422;7.210;2023-11-21T00:32:06;7.67;;;3.73;;
56307;SDS011;42217;50.422;7.210;2023-11-21T00:34:32;10.60;;;4.10;;
56307;SDS011;42217;50.422;7.210;2023-11-21T00:36:58;6.97;;;4.80;;
56307;SDS011;42217;50.422;7.210;2023-11-21T00:39:23;6.03;;;3.40;;
56307;SDS011;42217;50.422;7.210;2023-11-21T00:41:51;5.30;;;3.87;;
56307;SDS011;42217;50.422;7.210;2023-11-21T00:44:17;7.03;;;3.63;;
56307;SDS011;42217;50.422;7.210;2023-11-21T00:46:43;4.17;;;3.30;;
56307;SDS011;42217;50.422;7.210;2023-11-21T00:49:09;4.40;;;3.43;;
56307;SDS011;42217;50.422;7.210;2023-11-21T00:51:35;5.07;;;3.77;;
56307;SDS011;42217;50.422;7.210;2023-11-21T00:54:01;4.80;;;3.53;;
56307;SDS011;42217;50.422;7.210;2023-11-21T00:56:27;4.73;;;2.47;;
56307;SDS011;42217;50.422;7.210;2023-11-21T00:58:53;3.77;;;3.40;;
56307;SDS011;42217;50.422;7.210;2023-11-21T01:01:19;5.70;;;3.50;;
56307;SDS011;42217;50.422;7.210;2023-11-21T01:03:48;4.03;;;3.20;;
56307;SDS011;42217;50.422;7.210;2023-11-21T01:06:14;4.87;;;4.00;;
56307;SDS011;42217;50.422;7.210;2023-11-21T01:08:40;5.37;;;4.23;;
56307;SDS011;42217;50.422;7.210;2023-11-21T01:11:05;7.37;;;5.50;;
56307;SDS011;42217;50.422;7.210;2023-11-21T01:13:33;10.60;;;5.70;;
56307;SDS011;42217;50.422;7.210;2023-11-21T01:16:00;10.40;;;6.97;;
56307;SDS011;42217;50.422;7.210;2023-11-21T01:18:26;8.03;;;6.37;;
56307;SDS011;42217;50.422;7.210;2023-11-21T01:20:52;11.27;;;6.97;;
56307;SDS011;42217;50.422;7.210;2023-11-21T01:23:20;13.93;;;7.70;;
56307;SDS011;42217;50.422;7.210;2023-11-21T01:25:46;9.07;;;6.57;;
56307;SDS011;42217;50.422;7.210;2023-11-21T01:28:12;14.33;;;7.53;;
56307;SDS011;42217;50.422;7.210;2023-11-21T01:30:37;10.37;;;7.87;;
56307;SDS011;42217;50.422;7.210;2023-11-21T01:33:03;7.83;;;6.90;;
56307;SDS011;42217;50.422;7.210;2023-11-21T01:35:29;10.70;;;7.73;;
56307;SDS011;42217;50.422;7.210;2023-11-21T01:37:55;11.60;;;6.60;;
56307;SDS011;42217;50.422;7.210;2023-11-21T01:40:21;7.43;;;5.23;;
56307;SDS011;42217;50.422;7.210;2023-11-21T01:42:46;7.03;;;5.97;;
56307;SDS011;42217;50.422;7.210;2023-11-21T01:45:13;9.30;;;7.47;;
56307;SDS011;42217;50.422;7.210;2023-11-21T01:47:39;10.43;;;8.20;;
56307;SDS011;42217;50.422;7.210;2023-11-21T01:50:07;13.10;;;8.57;;
56307;SDS011;42217;50.422;7.210;2023-11-21T01:52:36;12.00;;;8.13;;
56307;SDS011;42217;50.422;7.210;2023-11-21T01:55:04;11.63;;;8.43;;
56307;SDS011;42217;50.422;7.210;2023-11-21T01:57:33;13.23;;;9.93;;
56307;SDS011;42217;50.422;7.210;2023-11-21T01:59:59;13.40;;;8.97;;
56307;SDS011;42217;50.422;7.210;2023-11-21T02:02:40;14.57;;;9.20;;
56307;SDS011;42217;50.422;7.210;2023-11-21T02:05:10;10.17;;;7.90;;
56307;SDS011;42217;50.422;7.210;2023-11-21T02:07:38;14.17;;;8.97;;
56307;SDS011;42217;50.422;7.210;2023-11-21T02:10:07;15.57;;;8.10;;
56307;SDS011;42217;50.422;7.210;2023-11-21T02:12:34;20.70;;;11.17;;
56307;SDS011;42217;50.422;7.210;2023-11-21T02:15:01;17.37;;;10.27;;
56307;SDS011;42217;50.422;7.210;2023-11-21T02:17:34;15.80;;;10.30;;
56307;SDS011;42217;50.422;7.210;2023-11-21T02:20:01;13.97;;;8.53;;
56307;SDS011;42217;50.422;7.210;2023-11-21T02:22:28;9.33;;;6.90;;
56307;SDS011;42217;50.422;7.210;2023-11-21T02:24:57;9.47;;;6.83;;
56307;SDS011;42217;50.422;7.210;2023-11-21T02:27:23;13.17;;;8.53;;
56307;SDS011;42217;50.422;7.210;2023-11-21T02:29:49;11.10;;;7.43;;
56307;SDS011;42217;50.422;7.210;2023-11-21T02:32:15;8.13;;;5.90;;
56307;SDS011;42217;50.422;7.210;2023-11-21T02:34:44;8.33;;;5.30;;
56307;SDS011;42217;50.422;7.210;2023-11-21T02:37:10;10.13;;;5.77;;
56307;SDS011;42217;50.422;7.210;2023-11-21T02:39:35;6.53;;;5.17;;
56307;SDS011;42217;50.422;7.210;2023-11-21T02:42:01;9.77;;;5.53;;
56307;SDS011;42217;50.422;7.210;2023-11-21T02:44:26;9.40;;;6.47;;
56307;SDS011;42217;50.422;7.210;2023-11-21T02:46:52;10.00;;;5.43;;
56307;SDS011;42217;50.422;7.210;2023-11-21T02:49:18;10.80;;;6.53;;
56307;SDS011;42217;50.422;7.210;2023-11-21T02:51:43;13.63;;;6.80;;
56307;SDS011;42217;50.422;7.210;2023-11-21T02:54:09;37.30;;;8.73;;
56307;SDS011;42217;50.422;7.210;2023-11-21T02:56:36;9.30;;;6.63;;
56307;SDS011;42217;50.422;7.210;2023-11-21T02:59:02;12.07;;;7.50;;
56307;SDS011;42217;50.422;7.210;2023-11-21T03:01:28;11.50;;;7.77;;
56307;SDS011;42217;50.422;7.210;2023-11-21T03:03:54;14.03;;;7.77;;
56307;SDS011;42217;50.422;7.210;2023-11-21T03:06:20;27.57;;;9.53;;
56307;SDS011;42217;50.422;7.210;2023-11-21T03:08:47;15.50;;;8.77;;
56307;SDS011;42217;50.422;7.210;2023-11-21T03:11:13;16.03;;;7.57;;
56307;SDS011;42217;50.422;7.210;2023-11-21T03:13:42;12.87;;;6.83;;
56307;SDS011;42217;50.422;7.210;2023-11-21T03:16:11;8.00;;;5.87;;
56307;SDS011;42217;50.422;7.210;2023-11-21T03:18:38;20.70;;;6.97;;
56307;SDS011;42217;50.422;7.210;2023-11-21T03:21:04;10.13;;;4.27;;
56307;SDS011;42217;50.422;7.210;2023-11-21T03:23:30;50.33;;;6.40;;
56307;SDS011;42217;50.422;7.210;2023-11-21T03:25:57;7.70;;;5.03;;
56307;SDS011;42217;50.422;7.210;2023-11-21T03:28:24;43.73;;;7.00;;
56307;SDS011;42217;50.422;7.210;2023-11-21T03:30:51;10.50;;;5.50;;
56307;SDS011;42217;50.422;7.210;2023-11-21T03:33:17;9.30;;;5.33;;
56307;SDS011;42217;50.422;7.210;2023-11-21T03:35:43;8.20;;;5.63;;
56307;SDS011;42217;50.422;7.210;2023-11-21T03:38:10;8.03;;;5.90;;
56307;SDS011;42217;50.422;7.210;2023-11-21T03:40:36;9.00;;;5.83;;
56307;SDS011;42217;50.422;7.210;2023-11-21T03:43:01;12.93;;;7.70;;
56307;SDS011;42217;50.422;7.210;2023-11-21T03:45:27;12.30;;;7.90;;
56307;SDS011;42217;50.422;7.210;2023-11-21T03:47:52;12.60;;;7.57;;
56307;SDS011;42217;50.422;7.210;2023-11-21T03:50:18;10.90;;;7.27;;
56307;SDS011;42217;50.422;7.210;2023-11-21T03:52:44;13.77;;;7.37;;
56307;SDS011;42217;50.422;7.210;2023-11-21T03:55:09;11.97;;;7.47;;
56307;SDS011;42217;50.422;7.210;2023-11-21T03:57:38;24.83;;;8.73;;
56307;SDS011;42217;50.422;7.210;2023-11-21T04:00:04;16.13;;;9.03;;
56307;SDS011;42217;50.422;7.210;2023-11-21T04:02:33;14.23;;;9.10;;
56307;SDS011;42217;50.422;7.210;2023-11-21T04:04:59;12.93;;;7.87;;
56307;SDS011;42217;50.422;7.210;2023-11-21T04:07:25;15.17;;;8.27;;
56307;SDS011;42217;50.422;7.210;2023-11-21T04:09:50;15.07;;;9.70;;
56307;SDS011;42217;50.422;7.210;2023-11-21T04:12:16;12.80;;;6.90;;
56307;SDS011;42217;50.422;7.210;2023-11-21T04:14:42;15.13;;;9.90;;
56307;SDS011;42217;50.422;7.210;2023-11-21T04:17:07;14.50;;;9.57;;
56307;SDS011;42217;50.422;7.210;2023-11-21T04:19:34;14.83;;;8.77;;
56307;SDS011;42217;50.422;7.210;2023-11-21T04:22:00;19.03;;;10.33;;
56307;SDS011;42217;50.422;7.210;2023-11-21T04:24:25;15.67;;;11.00;;
56307;SDS011;42217;50.422;7.210;2023-11-21T04:26:51;23.93;;;10.73;;
56307;SDS011;42217;50.422;7.210;2023-11-21T04:29:18;22.47;;;11.00;;
56307;SDS011;42217;50.422;7.210;2023-11-21T04:31:44;21.13;;;11.17;;
56307;SDS011;42217;50.422;7.210;2023-11-21T04:34:09;19.63;;;11.83;;
56307;SDS011;42217;50.422;7.210;2023-11-21T04:36:35;24.37;;;10.37;;
56307;SDS011;42217;50.422;7.210;2023-11-21T04:39:01;14.90;;;10.23;;
56307;SDS011;42217;50.422;7.210;2023-11-21T04:41:27;18.80;;;10.80;;
56307;SDS011;42217;50.422;7.210;2023-11-21T04:43:53;18.77;;;10.70;;
56307;SDS011;42217;50.422;7.210;2023-11-21T04:46:18;18.97;;;10.77;;
56307;SDS011;42217;50.422;7.210;2023-11-21T04:48:44;22.47;;;12.03;;
56307;SDS011;42217;50.422;7.210;2023-11-21T04:51:10;20.47;;;11.37;;
56307;SDS011;42217;50.422;7.210;2023-11-21T04:53:37;20.43;;;12.43;;
56307;SDS011;42217;50.422;7.210;2023-11-21T04:56:04;20.90;;;11.33;;
56307;SDS011;42217;50.422;7.210;2023-11-21T04:58:31;21.53;;;12.70;;
56307;SDS011;42217;50.422;7.210;2023-11-21T05:00:58;22.00;;;13.57;;
56307;SDS011;42217;50.422;7.210;2023-11-21T05:03:23;24.37;;;11.47;;
56307;SDS011;42217;50.422;7.210;2023-11-21T05:05:49;20.00;;;13.03;;
56307;SDS011;42217;50.422;7.210;2023-11-21T05:08:15;20.53;;;13.10;;
56307;SDS011;42217;50.422;7.210;2023-11-21T05:10:41;20.70;;;13.07;;
56307;SDS011;42217;50.422;7.210;2023-11-21T05:13:06;27.70;;;13.37;;
56307;SDS011;42217;50.422;7.210;2023-11-21T05:15:35;19.77;;;11.20;;
56307;SDS011;42217;50.422;7.210;2023-11-21T05:18:01;19.83;;;10.57;;
56307;SDS011;42217;50.422;7.210;2023-11-21T05:20:26;15.87;;;10.20;;
56307;SDS011;42217;50.422;7.210;2023-11-21T05:22:53;19.77;;;12.23;;
56307;SDS011;42217;50.422;7.210;2023-11-21T05:25:18;17.40;;;12.67;;
56307;SDS011;42217;50.422;7.210;2023-11-21T05:27:45;24.27;;;13.60;;
56307;SDS011;42217;50.422;7.210;2023-11-21T05:30:11;38.10;;;16.13;;
56307;SDS011;42217;50.422;7.210;2023-11-21T05:32:38;30.93;;;15.00;;
56307;SDS011;42217;50.422;7.210;2023-11-21T05:35:04;25.37;;;14.47;;
56307;SDS011;42217;50.422;7.210;2023-11-21T05:40:06;24.63;;;12.13;;
56307;SDS011;42217;50.422;7.210;2023-11-21T05:42:33;21.83;;;13.87;;
56307;SDS011;42217;50.422;7.210;2023-11-21T05:44:59;24.60;;;14.73;;
56307;SDS011;42217;50.422;7.210;2023-11-21T05:47:35;24.90;;;14.63;;
56307;SDS011;42217;50.422;7.210;2023-11-21T05:50:05;26.77;;;14.87;;
56307;SDS011;42217;50.422;7.210;2023-11-21T05:52:35;27.77;;;15.37;;
56307;SDS011;42217;50.422;7.210;2023-11-21T05:55:02;27.23;;;14.70;;
56307;SDS011;42217;50.422;7.210;2023-11-21T05:57:30;27.67;;;15.17;;
56307;SDS011;42217;50.422;7.210;2023-11-21T05:59:55;27.37;;;15.23;;
56307;SDS011;42217;50.422;7.210;2023-11-21T06:02:21;19.27;;;12.67;;
56307;SDS011;42217;50.422;7.210;2023-11-21T06:04:47;23.70;;;15.33;;
56307;SDS011;42217;50.422;7.210;2023-11-21T06:07:12;26.17;;;12.50;;
56307;SDS011;42217;50.422;7.210;2023-11-21T06:09:38;26.00;;;13.30;;
56307;SDS011;42217;50.422;7.210;2023-11-21T06:12:04;21.47;;;13.13;;
56307;SDS011;42217;50.422;7.210;2023-11-21T06:14:30;22.93;;;13.13;;
56307;SDS011;42217;50.422;7.210;2023-11-21T06:16:58;20.90;;;11.83;;
56307;SDS011;42217;50.422;7.210;2023-11-21T06:19:24;20.77;;;12.03;;
56307;SDS011;42217;50.422;7.210;2023-11-21T06:21:49;22.57;;;10.90;;
56307;SDS011;42217;50.422;7.210;2023-11-21T06:24:15;18.77;;;9.67;;
56307;SDS011;42217;50.422;7.210;2023-11-21T06:26:42;20.07;;;10.40;;
56307;SDS011;42217;50.422;7.210;2023-11-21T06:29:09;28.77;;;12.40;;
56307;SDS011;42217;50.422;7.210;2023-11-21T06:31:36;17.90;;;10.17;;
56307;SDS011;42217;50.422;7.210;2023-11-21T06:34:01;18.57;;;10.97;;
56307;SDS011;42217;50.422;7.210;2023-11-21T06:36:28;22.27;;;10.63;;
56307;SDS011;42217;50.422;7.210;2023-11-21T06:38:54;23.00;;;11.23;;
56307;SDS011;42217;50.422;7.210;2023-11-21T06:41:20;17.50;;;10.93;;
56307;SDS011;42217;50.422;7.210;2023-11-21T06:43:45;19.47;;;9.70;;
56307;SDS011;42217;50.422;7.210;2023-11-21T06:46:11;19.07;;;11.97;;
56307;SDS011;42217;50.422;7.210;2023-11-21T06:48:40;25.87;;;11.10;;
56307;SDS011;42217;50.422;7.210;2023-11-21T06:51:07;23.13;;;12.13;;
56307;SDS011;42217;50.422;7.210;2023-11-21T06:53:33;20.77;;;11.93;;
56307;SDS011;42217;50.422;7.210;2023-11-21T06:55:59;29.63;;;14.37;;
56307;SDS011;42217;50.422;7.210;2023-11-21T06:58:25;22.23;;;12.20;;
56307;SDS011;42217;50.422;7.210;2023-11-21T07:00:50;26.23;;;12.47;;
56307;SDS011;42217;50.422;7.210;2023-11-21T07:03:17;23.80;;;13.13;;
56307;SDS011;42217;50.422;7.210;2023-11-21T07:05:44;20.73;;;11.73;;
56307;SDS011;42217;50.422;7.210;2023-11-21T07:08:10;23.93;;;12.60;;
56307;SDS011;42217;50.422;7.210;2023-11-21T07:10:35;23.43;;;13.63;;
56307;SDS011;42217;50.422;7.210;2023-11-21T07:13:01;25.57;;;11.53;;
56307;SDS011;42217;50.422;7.210;2023-11-21T07:15:27;26.37;;;12.77;;
56307;SDS011;42217;50.422;7.210;2023-11-21T07:17:53;19.43;;;11.40;;
56307;SDS011;42217;50.422;7.210;2023-11-21T07:20:19;19.57;;;11.70;;
56307;SDS011;42217;50.422;7.210;2023-11-21T07:22:45;28.00;;;14.10;;
56307;SDS011;42217;50.422;7.210;2023-11-21T07:25:11;25.23;;;13.97;;
56307;SDS011;42217;50.422;7.210;2023-11-21T07:27:37;24.67;;;13.40;;
56307;SDS011;42217;50.422;7.210;2023-11-21T07:30:02;27.37;;;12.87;;
56307;SDS011;42217;50.422;7.210;2023-11-21T07:32:31;23.27;;;10.97;;
56307;SDS011;42217;50.422;7.210;2023-11-21T07:34:56;30.97;;;12.13;;
56307;SDS011;42217;50.422;7.210;2023-11-21T07:37:24;36.27;;;13.00;;
56307;SDS011;42217;50.422;7.210;2023-11-21T07:39:53;27.07;;;12.03;;
56307;SDS011;42217;50.422;7.210;2023-11-21T07:42:21;28.70;;;12.20;;
56307;SDS011;42217;50.422;7.210;2023-11-21T07:44:49;25.77;;;12.70;;
56307;SDS011;42217;50.422;7.210;2023-11-21T07:47:17;24.73;;;12.57;;
56307;SDS011;42217;50.422;7.210;2023-11-21T07:49:42;27.87;;;12.40;;
56307;SDS011;42217;50.422;7.210;2023-11-21T07:52:10;20.53;;;11.17;;
56307;SDS011;42217;50.422;7.210;2023-11-21T07:54:35;21.57;;;11.33;;
56307;SDS011;42217;50.422;7.210;2023-11-21T07:57:01;18.67;;;10.43;;
56307;SDS011;42217;50.422;7.210;2023-11-21T07:59:29;36.53;;;11.87;;
56307;SDS011;42217;50.422;7.210;2023-11-21T08:02:01;27.00;;;12.47;;
56307;SDS011;42217;50.422;7.210;2023-11-21T08:04:27;20.10;;;12.13;;
56307;SDS011;42217;50.422;7.210;2023-11-21T08:06:52;22.40;;;10.50;;
56307;SDS011;42217;50.422;7.210;2023-11-21T08:09:18;22.00;;;11.27;;
56307;SDS011;42217;50.422;7.210;2023-11-21T08:11:43;18.07;;;9.60;;
56307;SDS011;42217;50.422;7.210;2023-11-21T08:14:09;29.20;;;10.83;;
56307;SDS011;42217;50.422;7.210;2023-11-21T08:16:35;16.10;;;9.70;;
56307;SDS011;42217;50.422;7.210;2023-11-21T08:19:00;22.13;;;11.83;;
56307;SDS011;42217;50.422;7.210;2023-11-21T08:21:27;16.07;;;10.30;;
56307;SDS011;42217;50.422;7.210;2023-11-21T08:23:54;17.07;;;9.97;;
56307;SDS011;42217;50.422;7.210;2023-11-21T08:26:23;16.87;;;10.97;;
56307;SDS011;42217;50.422;7.210;2023-11-21T08:28:49;20.20;;;9.50;;
56307;SDS011;42217;50.422;7.210;2023-11-21T08:31:17;18.90;;;10.53;;
56307;SDS011;42217;50.422;7.210;2023-11-21T08:33:42;23.17;;;9.90;;
56307;SDS011;42217;50.422;7.210;2023-11-21T08:36:08;17.03;;;9.33;;
56307;SDS011;42217;50.422;7.210;2023-11-21T08:38:36;20.27;;;9.73;;
56307;SDS011;42217;50.422;7.210;2023-11-21T08:41:05;19.40;;;9.73;;
56307;SDS011;42217;50.422;7.210;2023-11-21T08:43:36;22.07;;;10.70;;
56307;SDS011;42217;50.422;7.210;2023-11-21T08:46:05;24.50;;;11.10;;
56307;SDS011;42217;50.422;7.210;2023-11-21T08:48:31;16.37;;;9.10;;
56307;SDS011;42217;50.422;7.210;2023-11-21T08:50:57;18.73;;;9.77;;
56307;SDS011;42217;50.422;7.210;2023-11-21T08:53:23;18.50;;;10.40;;
56307;SDS011;42217;50.422;7.210;2023-11-21T08:55:48;17.90;;;10.87;;
56307;SDS011;42217;50.422;7.210;2023-11-21T08:58:15;21.23;;;10.97;;
56307;SDS011;42217;50.422;7.210;2023-11-21T09:00:41;26.10;;;11.83;;
56307;SDS011;42217;50.422;7.210;2023-11-21T09:03:06;15.73;;;9.73;;
56307;SDS011;42217;50.422;7.210;2023-11-21T09:05:33;20.00;;;10.80;;
56307;SDS011;42217;50.422;7.210;2023-11-21T09:08:02;22.07;;;11.30;;
56307;SDS011;42217;50.422;7.210;2023-11-21T09:10:28;18.67;;;11.23;;
56307;SDS011;42217;50.422;7.210;2023-11-21T09:12:54;20.77;;;11.67;;
56307;SDS011;42217;50.422;7.210;2023-11-21T09:15:19;24.80;;;11.70;;
56307;SDS011;42217;50.422;7.210;2023-11-21T09:17:45;17.53;;;10.27;;
56307;SDS011;42217;50.422;7.210;2023-11-21T09:20:11;19.17;;;10.27;;
56307;SDS011;42217;50.422;7.210;2023-11-21T09:22:39;16.33;;;10.40;;
56307;SDS011;42217;50.422;7.210;2023-11-21T09:25:05;19.60;;;10.73;;
56307;SDS011;42217;50.422;7.210;2023-11-21T09:27:33;16.80;;;10.27;;
56307;SDS011;42217;50.422;7.210;2023-11-21T09:30:00;15.57;;;9.57;;
56307;SDS011;42217;50.422;7.210;2023-11-21T09:32:26;17.93;;;11.27;;
56307;SDS011;42217;50.422;7.210;2023-11-21T09:34:52;17.47;;;10.53;;
56307;SDS011;42217;50.422;7.210;2023-11-21T09:37:20;16.10;;;9.77;;
56307;SDS011;42217;50.422;7.210;2023-11-21T09:39:46;20.00;;;10.27;;
56307;SDS011;42217;50.422;7.210;2023-11-21T09:42:13;20.17;;;10.33;;
56307;SDS011;42217;50.422;7.210;2023-11-21T09:45:25;17.40;;;9.73;;
56307;SDS011;42217;50.422;7.210;2023-11-21T09:47:40;18.63;;;9.77;;
56307;SDS011;42217;50.422;7.210;2023-11-21T09:50:08;20.10;;;11.33;;
56307;SDS011;42217;50.422;7.210;2023-11-21T09:52:40;21.83;;;8.97;;
56307;SDS011;42217;50.422;7.210;2023-11-21T09:55:29;14.73;;;9.93;;
56307;SDS011;42217;50.422;7.210;2023-11-21T09:58:00;14.00;;;9.00;;
56307;SDS011;42217;50.422;7.210;2023-11-21T10:00:28;20.67;;;10.00;;
56307;SDS011;42217;50.422;7.210;2023-11-21T10:02:58;16.60;;;8.93;;
56307;SDS011;42217;50.422;7.210;2023-11-21T10:05:24;15.30;;;10.10;;
56307;SDS011;42217;50.422;7.210;2023-11-21T10:07:50;18.50;;;9.77;;
56307;SDS011;42217;50.422;7.210;2023-11-21T10:10:17;17.80;;;9.50;;
56307;SDS011;42217;50.422;7.210;2023-11-21T10:12:51;20.63;;;11.83;;
56307;SDS011;42217;50.422;7.210;2023-11-21T10:15:26;39.30;;;13.60;;
56307;SDS011;42217;50.422;7.210;2023-11-21T10:17:53;20.10;;;10.70;;
56307;SDS011;42217;50.422;7.210;2023-11-21T10:20:20;18.50;;;10.37;;
56307;SDS011;42217;50.422;7.210;2023-11-21T10:22:49;23.00;;;10.97;;
56307;SDS011;42217;50.422;7.210;2023-11-21T10:25:15;18.37;;;10.23;;
56307;SDS011;42217;50.422;7.210;2023-11-21T10:27:43;16.90;;;10.43;;
56307;SDS011;42217;50.422;7.210;2023-11-21T10:30:12;20.47;;;9.10;;
56307;SDS011;42217;50.422;7.210;2023-11-21T10:32:41;23.90;;;10.77;;
56307;SDS011;42217;50.422;7.210;2023-11-21T10:35:08;21.63;;;10.53;;
56307;SDS011;42217;50.422;7.210;2023-11-21T10:37:37;25.87;;;11.30;;
56307;SDS011;42217;50.422;7.210;2023-11-21T10:40:05;26.03;;;10.80;;
56307;SDS011;42217;50.422;7.210;2023-11-21T10:42:38;21.47;;;10.17;;
56307;SDS011;42217;50.422;7.210;2023-11-21T10:45:04;21.23;;;11.47;;
56307;SDS011;42217;50.422;7.210;2023-11-21T10:47:43;22.67;;;12.17;;
56307;SDS011;42217;50.422;7.210;2023-11-21T10:50:09;25.13;;;12.23;;
56307;SDS011;42217;50.422;7.210;2023-11-21T10:52:39;19.63;;;12.50;;
56307;SDS011;42217;50.422;7.210;2023-11-21T10:55:17;21.65;;;10.93;;
56307;SDS011;42217;50.422;7.210;2023-11-21T10:57:47;20.67;;;10.20;;
56307;SDS011;42217;50.422;7.210;2023-11-21T11:00:14;18.30;;;9.53;;
56307;SDS011;42217;50.422;7.210;2023-11-21T11:02:44;21.73;;;10.27;;
56307;SDS011;42217;50.422;7.210;2023-11-21T11:05:12;19.10;;;9.37;;
56307;SDS011;42217;50.422;7.210;2023-11-21T11:07:40;17.47;;;9.73;;
56307;SDS011;42217;50.422;7.210;2023-11-21T11:10:09;17.27;;;10.10;;
56307;SDS011;42217;50.422;7.210;2023-11-21T11:12:39;25.67;;;11.33;;
56307;SDS011;42217;50.422;7.210;2023-11-21T11:15:06;26.93;;;12.20;;
56307;SDS011;42217;50.422;7.210;2023-11-21T11:17:35;24.30;;;12.00;;
56307;SDS011;42217;50.422;7.210;2023-11-21T11:20:07;15.97;;;10.63;;
56307;SDS011;42217;50.422;7.210;2023-11-21T11:22:37;26.93;;;13.03;;
56307;SDS011;42217;50.422;7.210;2023-11-21T11:27:47;18.77;;;11.37;;
56307;SDS011;42217;50.422;7.210;2023-11-21T11:33:33;15.20;;;9.83;;
56307;SDS011;42217;50.422;7.210;2023-11-21T11:38:51;22.17;;;11.73;;
56307;SDS011;42217;50.422;7.210;2023-11-21T11:41:27;27.47;;;13.00;;
56307;SDS011;42217;50.422;7.210;2023-11-21T11:43:57;18.77;;;12.33;;
56307;SDS011;42217;50.422;7.210;2023-11-21T11:46:43;28.13;;;14.63;;
56307;SDS011;42217;50.422;7.210;2023-11-21T11:49:27;19.67;;;11.47;;
56307;SDS011;42217;50.422;7.210;2023-11-21T11:52:31;20.10;;;10.57;;
56307;SDS011;42217;50.422;7.210;2023-11-21T11:55:11;20.47;;;10.30;;
56307;SDS011;42217;50.422;7.210;2023-11-21T11:57:44;21.97;;;9.87;;
56307;SDS011;42217;50.422;7.210;2023-11-21T12:03:00;22.23;;;11.20;;
56307;SDS011;42217;50.422;7.210;2023-11-21T12:05:28;16.40;;;10.23;;
56307;SDS011;42217;50.422;7.210;2023-11-21T12:08:04;22.03;;;10.93;;
56307;SDS011;42217;50.422;7.210;2023-11-21T12:10:32;18.27;;;11.67;;
56307;SDS011;42217;50.422;7.210;2023-11-21T12:13:00;20.43;;;11.00;;
56307;SDS011;42217;50.422;7.210;2023-11-21T12:15:27;21.10;;;10.43;;
56307;SDS011;42217;50.422;7.210;2023-11-21T12:17:56;16.67;;;9.67;;
56307;SDS011;42217;50.422;7.210;2023-11-21T12:20:26;22.73;;;9.70;;
56307;SDS011;42217;50.422;7.210;2023-11-21T12:22:57;17.30;;;10.43;;
56307;SDS011;42217;50.422;7.210;2023-11-21T12:25:26;17.92;;;9.60;;
56307;SDS011;42217;50.422;7.210;2023-11-21T12:27:59;16.57;;;9.37;;
56307;SDS011;42217;50.422;7.210;2023-11-21T12:30:26;14.43;;;8.27;;
56307;SDS011;42217;50.422;7.210;2023-11-21T12:32:56;17.80;;;9.57;;
56307;SDS011;42217;50.422;7.210;2023-11-21T12:35:26;18.80;;;9.20;;
56307;SDS011;42217;50.422;7.210;2023-11-21T12:37:56;17.70;;;9.90;;
56307;SDS011;42217;50.422;7.210;2023-11-21T12:40:22;16.73;;;8.83;;
56307;SDS011;42217;50.422;7.210;2023-11-21T12:42:51;16.57;;;7.80;;
56307;SDS011;42217;50.422;7.210;2023-11-21T12:45:19;13.63;;;7.80;;
56307;SDS011;42217;50.422;7.210;2023-11-21T12:47:50;16.80;;;8.27;;
56307;SDS011;42217;50.422;7.210;2023-11-21T12:50:20;22.77;;;9.00;;
56307;SDS011;42217;50.422;7.210;2023-11-21T12:52:53;13.17;;;8.03;;
56307;SDS011;42217;50.422;7.210;2023-11-21T12:55:23;14.03;;;8.77;;
56307;SDS011;42217;50.422;7.210;2023-11-21T12:57:51;15.90;;;9.20;;
56307;SDS011;42217;50.422;7.210;2023-11-21T13:00:20;18.17;;;8.77;;
56307;SDS011;42217;50.422;7.210;2023-11-21T13:02:57;22.43;;;8.17;;
56307;SDS011;42217;50.422;7.210;2023-11-21T13:05:33;14.90;;;7.97;;
56307;SDS011;42217;50.422;7.210;2023-11-21T13:08:01;16.37;;;9.20;;
56307;SDS011;42217;50.422;7.210;2023-11-21T13:10:29;16.23;;;9.20;;
56307;SDS011;42217;50.422;7.210;2023-11-21T13:12:57;17.47;;;8.47;;
56307;SDS011;42217;50.422;7.210;2023-11-21T13:15:24;18.77;;;8.70;;
56307;SDS011;42217;50.422;7.210;2023-11-21T13:17:50;21.53;;;9.13;;
56307;SDS011;42217;50.422;7.210;2023-11-21T13:20:16;19.17;;;9.93;;
56307;SDS011;42217;50.422;7.210;2023-11-21T13:23:16;22.53;;;10.63;;
56307;SDS011;42217;50.422;7.210;2023-11-21T13:25:41;20.70;;;9.07;;
56307;SDS011;42217;50.422;7.210;2023-11-21T13:28:07;20.60;;;9.60;;
56307;SDS011;42217;50.422;7.210;2023-11-21T13:30:34;17.63;;;9.47;;
56307;SDS011;42217;50.422;7.210;2023-11-21T13:33:01;19.40;;;9.40;;
56307;SDS011;42217;50.422;7.210;2023-11-21T13:35:31;22.73;;;10.93;;
56307;SDS011;42217;50.422;7.210;2023-11-21T13:38:04;26.17;;;12.10;;
56307;SDS011;42217;50.422;7.210;2023-11-21T13:40:31;20.70;;;10.27;;
56307;SDS011;42217;50.422;7.210;2023-11-21T13:42:59;18.40;;;11.27;;
56307;SDS011;42217;50.422;7.210;2023-11-21T13:45:29;17.93;;;9.50;;
56307;SDS011;42217;50.422;7.210;2023-11-21T13:47:56;25.13;;;12.73;;
56307;SDS011;42217;50.422;7.210;2023-11-21T13:50:26;23.20;;;12.33;;
56307;SDS011;42217;50.422;7.210;2023-11-21T13:52:58;27.37;;;10.30;;
56307;SDS011;42217;50.422;7.210;2023-11-21T13:55:28;19.47;;;9.97;;
56307;SDS011;42217;50.422;7.210;2023-11-21T13:57:54;25.37;;;12.50;;
56307;SDS011;42217;50.422;7.210;2023-11-21T14:00:19;22.13;;;8.90;;
56307;SDS011;42217;50.422;7.210;2023-11-21T14:03:06;22.93;;;12.23;;
56307;SDS011;42217;50.422;7.210;2023-11-21T14:05:42;24.90;;;11.67;;
56307;SDS011;42217;50.422;7.210;2023-11-21T14:08:09;22.40;;;12.03;;
56307;SDS011;42217;50.422;7.210;2023-11-21T14:10:37;21.30;;;11.20;;
56307;SDS011;42217;50.422;7.210;2023-11-21T14:13:08;22.37;;;11.03;;
56307;SDS011;42217;50.422;7.210;2023-11-21T14:15:40;20.00;;;10.67;;
56307;SDS011;42217;50.422;7.210;2023-11-21T14:18:10;19.48;;;9.80;;
56307;SDS011;42217;50.422;7.210;2023-11-21T14:20:37;23.43;;;10.43;;
56307;SDS011;42217;50.422;7.210;2023-11-21T14:23:04;20.67;;;11.27;;
56307;SDS011;42217;50.422;7.210;2023-11-21T14:25:32;29.50;;;12.50;;
56307;SDS011;42217;50.422;7.210;2023-11-21T14:27:58;29.60;;;11.37;;
56307;SDS011;42217;50.422;7.210;2023-11-21T14:30:24;21.30;;;10.07;;
56307;SDS011;42217;50.422;7.210;2023-11-21T14:32:51;24.03;;;11.70;;
56307;SDS011;42217;50.422;7.210;2023-11-21T14:35:16;28.60;;;10.53;;
56307;SDS011;42217;50.422;7.210;2023-11-21T14:37:43;25.90;;;12.07;;
56307;SDS011;42217;50.422;7.210;2023-11-21T14:40:08;25.00;;;11.37;;
56307;SDS011;42217;50.422;7.210;2023-11-21T14:42:35;25.67;;;11.63;;
56307;SDS011;42217;50.422;7.210;2023-11-21T14:45:04;25.87;;;11.57;;